sensor_id;sensor_type;location;lat;lon;timestamp;P1;durP1;ratioP1;P2;durP2;ratioP2
4867;SDS011;2448;48.086;10.862;2023-05-07T00:01:34;4.03;;;3.63;;
4867;SDS011;2448;48.086;10.862;2023-05-07T00:04:00;7.20;;;3.07;;
4867;SDS011;2448;48.086;10.862;2023-05-07T00:06:25;3.93;;;3.43;;
4867;SDS011;2448;48.086;10.862;2023-05-07T00:08:51;3.73;;;3.43;;
4867;SDS011;2448;48.086;10.862;2023-05-07T00:11:17;4.30;;;3.40;;
4867;SDS011;2448;48.086;10.862;2023-05-07T00:13:42;4.23;;;3.83;;
4867;SDS011;2448;48.086;10.862;2023-05-07T00:16:08;12.00;;;3.20;;
4867;SDS011;2448;48.086;10.862;2023-05-07T00:18:33;6.43;;;3.80;;
4867;SDS011;2448;48.086;10.862;2023-05-07T00:20:58;3.50;;;3.20;;
4867;SDS011;2448;48.086;10.862;2023-05-07T00:23:24;4.07;;;3.67;;
4867;SDS011;2448;48.086;10.862;2023-05-07T00:25:49;3.70;;;3.07;;
4867;SDS011;2448;48.086;10.862;2023-05-07T00:28:14;4.77;;;3.73;;
4867;SDS011;2448;48.086;10.862;2023-05-07T00:30:40;4.63;;;3.33;;
4867;SDS011;2448;48.086;10.862;2023-05-07T00:33:05;3.67;;;3.27;;
4867;SDS011;2448;48.086;10.862;2023-05-07T00:35:30;3.83;;;3.23;;
4867;SDS011;2448;48.086;10.862;2023-05-07T00:37:56;8.17;;;3.30;;
4867;SDS011;2448;48.086;10.862;2023-05-07T00:40:21;4.30;;;3.70;;
4867;SDS011;2448;48.086;10.862;2023-05-07T00:42:47;4.00;;;3.60;;
4867;SDS011;2448;48.086;10.862;2023-05-07T00:45:14;4.90;;;3.73;;
4867;SDS011;2448;48.086;10.862;2023-05-07T00:47:40;7.63;;;4.60;;
4867;SDS011;2448;48.086;10.862;2023-05-07T00:50:05;5.73;;;4.07;;
4867;SDS011;2448;48.086;10.862;2023-05-07T00:52:31;4.37;;;3.80;;
4867;SDS011;2448;48.086;10.862;2023-05-07T00:54:56;4.97;;;4.23;;
4867;SDS011;2448;48.086;10.862;2023-05-07T00:57:22;7.23;;;4.10;;
4867;SDS011;2448;48.086;10.862;2023-05-07T00:59:49;4.50;;;3.97;;
4867;SDS011;2448;48.086;10.862;2023-05-07T01:02:16;9.03;;;3.70;;
4867;SDS011;2448;48.086;10.862;2023-05-07T01:04:41;6.00;;;3.73;;
4867;SDS011;2448;48.086;10.862;2023-05-07T01:07:07;3.93;;;3.13;;
4867;SDS011;2448;48.086;10.862;2023-05-07T01:09:32;3.97;;;3.57;;
4867;SDS011;2448;48.086;10.862;2023-05-07T01:12:00;4.60;;;3.53;;
4867;SDS011;2448;48.086;10.862;2023-05-07T01:14:26;5.23;;;4.17;;
4867;SDS011;2448;48.086;10.862;2023-05-07T01:16:52;4.70;;;3.63;;
4867;SDS011;2448;48.086;10.862;2023-05-07T01:19:20;3.70;;;3.40;;
4867;SDS011;2448;48.086;10.862;2023-05-07T01:21:47;5.17;;;2.70;;
4867;SDS011;2448;48.086;10.862;2023-05-07T01:24:14;5.47;;;3.90;;
4867;SDS011;2448;48.086;10.862;2023-05-07T01:26:40;3.37;;;2.80;;
4867;SDS011;2448;48.086;10.862;2023-05-07T01:29:05;4.13;;;3.60;;
4867;SDS011;2448;48.086;10.862;2023-05-07T01:31:32;6.30;;;3.00;;
4867;SDS011;2448;48.086;10.862;2023-05-07T01:33:58;3.00;;;2.80;;
4867;SDS011;2448;48.086;10.862;2023-05-07T01:36:24;3.27;;;2.97;;
4867;SDS011;2448;48.086;10.862;2023-05-07T01:38:52;3.80;;;3.50;;
4867;SDS011;2448;48.086;10.862;2023-05-07T01:41:18;4.20;;;2.70;;
4867;SDS011;2448;48.086;10.862;2023-05-07T01:43:44;3.70;;;3.40;;
4867;SDS011;2448;48.086;10.862;2023-05-07T01:46:09;3.70;;;3.30;;
4867;SDS011;2448;48.086;10.862;2023-05-07T01:48:35;3.40;;;3.10;;
4867;SDS011;2448;48.086;10.862;2023-05-07T01:51:01;3.40;;;3.10;;
4867;SDS011;2448;48.086;10.862;2023-05-07T01:53:27;3.77;;;3.43;;
4867;SDS011;2448;48.086;10.862;2023-05-07T01:55:52;3.53;;;3.33;;
4867;SDS011;2448;48.086;10.862;2023-05-07T01:58:19;4.30;;;3.30;;
4867;SDS011;2448;48.086;10.862;2023-05-07T02:00:44;4.43;;;3.87;;
4867;SDS011;2448;48.086;10.862;2023-05-07T02:03:10;3.70;;;3.40;;
4867;SDS011;2448;48.086;10.862;2023-05-07T02:05:45;5.73;;;3.80;;
4867;SDS011;2448;48.086;10.862;2023-05-07T02:08:27;9.73;;;3.77;;
4867;SDS011;2448;48.086;10.862;2023-05-07T02:10:53;4.97;;;3.90;;
4867;SDS011;2448;48.086;10.862;2023-05-07T02:13:19;5.73;;;4.23;;
4867;SDS011;2448;48.086;10.862;2023-05-07T02:15:45;4.07;;;3.67;;
4867;SDS011;2448;48.086;10.862;2023-05-07T02:18:15;3.20;;;2.90;;
4867;SDS011;2448;48.086;10.862;2023-05-07T02:20:40;4.43;;;3.43;;
4867;SDS011;2448;48.086;10.862;2023-05-07T02:23:06;3.90;;;3.50;;
4867;SDS011;2448;48.086;10.862;2023-05-07T02:25:31;4.70;;;3.47;;
4867;SDS011;2448;48.086;10.862;2023-05-07T02:27:57;6.77;;;3.57;;
4867;SDS011;2448;48.086;10.862;2023-05-07T02:30:32;3.43;;;3.10;;
4867;SDS011;2448;48.086;10.862;2023-05-07T02:32:58;3.00;;;2.80;;
4867;SDS011;2448;48.086;10.862;2023-05-07T02:35:24;4.20;;;3.67;;
4867;SDS011;2448;48.086;10.862;2023-05-07T02:37:50;6.03;;;3.30;;
4867;SDS011;2448;48.086;10.862;2023-05-07T02:40:15;5.10;;;4.10;;
4867;SDS011;2448;48.086;10.862;2023-05-07T02:42:41;3.37;;;3.17;;
4867;SDS011;2448;48.086;10.862;2023-05-07T02:45:06;5.33;;;3.30;;
4867;SDS011;2448;48.086;10.862;2023-05-07T02:47:33;3.53;;;3.23;;
4867;SDS011;2448;48.086;10.862;2023-05-07T02:50:00;5.33;;;3.50;;
4867;SDS011;2448;48.086;10.862;2023-05-07T02:52:26;6.73;;;3.77;;
4867;SDS011;2448;48.086;10.862;2023-05-07T02:54:51;3.57;;;3.27;;
4867;SDS011;2448;48.086;10.862;2023-05-07T02:57:17;7.00;;;4.10;;
4867;SDS011;2448;48.086;10.862;2023-05-07T02:59:42;4.27;;;3.90;;
4867;SDS011;2448;48.086;10.862;2023-05-07T03:02:09;5.33;;;3.37;;
4867;SDS011;2448;48.086;10.862;2023-05-07T03:04:35;4.80;;;3.87;;
4867;SDS011;2448;48.086;10.862;2023-05-07T03:07:00;4.63;;;4.10;;
4867;SDS011;2448;48.086;10.862;2023-05-07T03:09:26;4.30;;;3.90;;
4867;SDS011;2448;48.086;10.862;2023-05-07T03:11:51;6.00;;;4.00;;
4867;SDS011;2448;48.086;10.862;2023-05-07T03:14:16;6.13;;;3.33;;
4867;SDS011;2448;48.086;10.862;2023-05-07T03:16:42;4.93;;;3.43;;
4867;SDS011;2448;48.086;10.862;2023-05-07T03:19:07;4.63;;;3.87;;
4867;SDS011;2448;48.086;10.862;2023-05-07T03:21:33;6.10;;;4.23;;
4867;SDS011;2448;48.086;10.862;2023-05-07T03:23:59;3.90;;;3.23;;
4867;SDS011;2448;48.086;10.862;2023-05-07T03:26:25;7.03;;;4.20;;
4867;SDS011;2448;48.086;10.862;2023-05-07T03:28:51;3.77;;;3.17;;
4867;SDS011;2448;48.086;10.862;2023-05-07T03:31:16;5.00;;;4.17;;
4867;SDS011;2448;48.086;10.862;2023-05-07T03:33:55;5.83;;;3.60;;
4867;SDS011;2448;48.086;10.862;2023-05-07T03:36:21;8.00;;;4.07;;
4867;SDS011;2448;48.086;10.862;2023-05-07T03:38:47;3.63;;;3.17;;
4867;SDS011;2448;48.086;10.862;2023-05-07T03:41:15;5.00;;;3.27;;
4867;SDS011;2448;48.086;10.862;2023-05-07T03:43:43;9.17;;;4.73;;
4867;SDS011;2448;48.086;10.862;2023-05-07T03:46:10;5.20;;;3.53;;
4867;SDS011;2448;48.086;10.862;2023-05-07T03:48:36;5.00;;;4.23;;
4867;SDS011;2448;48.086;10.862;2023-05-07T03:51:01;3.77;;;3.47;;
4867;SDS011;2448;48.086;10.862;2023-05-07T03:53:30;6.80;;;4.00;;
4867;SDS011;2448;48.086;10.862;2023-05-07T03:55:56;5.00;;;3.50;;
4867;SDS011;2448;48.086;10.862;2023-05-07T03:58:21;4.30;;;4.00;;
4867;SDS011;2448;48.086;10.862;2023-05-07T04:00:47;3.60;;;3.20;;
4867;SDS011;2448;48.086;10.862;2023-05-07T04:03:25;4.03;;;3.73;;
4867;SDS011;2448;48.086;10.862;2023-05-07T04:05:51;5.43;;;4.00;;
4867;SDS011;2448;48.086;10.862;2023-05-07T04:08:17;4.17;;;3.70;;
4867;SDS011;2448;48.086;10.862;2023-05-07T04:10:46;4.23;;;3.60;;
4867;SDS011;2448;48.086;10.862;2023-05-07T04:13:12;6.20;;;3.47;;
4867;SDS011;2448;48.086;10.862;2023-05-07T04:15:38;10.37;;;3.40;;
4867;SDS011;2448;48.086;10.862;2023-05-07T04:18:07;5.33;;;3.27;;
4867;SDS011;2448;48.086;10.862;2023-05-07T04:20:33;3.83;;;3.43;;
4867;SDS011;2448;48.086;10.862;2023-05-07T04:23:01;3.70;;;3.20;;
4867;SDS011;2448;48.086;10.862;2023-05-07T04:25:27;3.70;;;3.40;;
4867;SDS011;2448;48.086;10.862;2023-05-07T04:27:57;5.40;;;3.73;;
4867;SDS011;2448;48.086;10.862;2023-05-07T04:30:26;4.00;;;3.60;;
4867;SDS011;2448;48.086;10.862;2023-05-07T04:32:51;3.70;;;3.30;;
4867;SDS011;2448;48.086;10.862;2023-05-07T04:35:18;6.67;;;3.63;;
4867;SDS011;2448;48.086;10.862;2023-05-07T04:37:43;2.93;;;2.70;;
4867;SDS011;2448;48.086;10.862;2023-05-07T04:40:09;2.87;;;2.67;;
4867;SDS011;2448;48.086;10.862;2023-05-07T04:42:35;4.90;;;3.60;;
4867;SDS011;2448;48.086;10.862;2023-05-07T04:45:01;4.43;;;3.73;;
4867;SDS011;2448;48.086;10.862;2023-05-07T04:47:30;4.83;;;3.50;;
4867;SDS011;2448;48.086;10.862;2023-05-07T04:49:57;3.83;;;3.57;;
4867;SDS011;2448;48.086;10.862;2023-05-07T04:52:22;4.10;;;3.57;;
4867;SDS011;2448;48.086;10.862;2023-05-07T04:54:48;7.13;;;4.40;;
4867;SDS011;2448;48.086;10.862;2023-05-07T04:57:13;3.90;;;3.50;;
4867;SDS011;2448;48.086;10.862;2023-05-07T04:59:40;5.73;;;4.00;;
4867;SDS011;2448;48.086;10.862;2023-05-07T05:02:06;4.80;;;3.93;;
4867;SDS011;2448;48.086;10.862;2023-05-07T05:04:31;5.87;;;3.80;;
4867;SDS011;2448;48.086;10.862;2023-05-07T05:06:57;3.77;;;3.40;;
4867;SDS011;2448;48.086;10.862;2023-05-07T05:09:22;3.80;;;3.50;;
4867;SDS011;2448;48.086;10.862;2023-05-07T05:11:48;10.33;;;4.23;;
4867;SDS011;2448;48.086;10.862;2023-05-07T05:14:13;4.60;;;3.80;;
4867;SDS011;2448;48.086;10.862;2023-05-07T05:16:39;5.77;;;3.60;;
4867;SDS011;2448;48.086;10.862;2023-05-07T05:19:05;8.70;;;4.70;;
4867;SDS011;2448;48.086;10.862;2023-05-07T05:21:34;5.77;;;4.00;;
4867;SDS011;2448;48.086;10.862;2023-05-07T05:24:05;5.87;;;4.00;;
4867;SDS011;2448;48.086;10.862;2023-05-07T05:26:30;5.33;;;3.70;;
4867;SDS011;2448;48.086;10.862;2023-05-07T05:28:56;12.80;;;4.00;;
4867;SDS011;2448;48.086;10.862;2023-05-07T05:31:23;4.10;;;3.70;;
4867;SDS011;2448;48.086;10.862;2023-05-07T05:33:50;4.20;;;3.77;;
4867;SDS011;2448;48.086;10.862;2023-05-07T05:36:16;4.73;;;3.67;;
4867;SDS011;2448;48.086;10.862;2023-05-07T05:38:43;4.33;;;3.80;;
4867;SDS011;2448;48.086;10.862;2023-05-07T05:41:10;2.97;;;2.77;;
4867;SDS011;2448;48.086;10.862;2023-05-07T05:43:35;5.20;;;3.50;;
4867;SDS011;2448;48.086;10.862;2023-05-07T05:46:01;5.10;;;3.73;;
4867;SDS011;2448;48.086;10.862;2023-05-07T05:48:26;8.77;;;3.70;;
4867;SDS011;2448;48.086;10.862;2023-05-07T05:50:52;4.47;;;3.53;;
4867;SDS011;2448;48.086;10.862;2023-05-07T05:53:18;9.90;;;3.93;;
4867;SDS011;2448;48.086;10.862;2023-05-07T05:55:43;4.63;;;4.20;;
4867;SDS011;2448;48.086;10.862;2023-05-07T05:58:10;3.63;;;3.33;;
4867;SDS011;2448;48.086;10.862;2023-05-07T06:00:39;5.03;;;2.80;;
4867;SDS011;2448;48.086;10.862;2023-05-07T06:03:05;2.83;;;2.67;;
4867;SDS011;2448;48.086;10.862;2023-05-07T06:05:31;4.67;;;2.97;;
4867;SDS011;2448;48.086;10.862;2023-05-07T06:07:57;3.30;;;3.00;;
4867;SDS011;2448;48.086;10.862;2023-05-07T06:10:23;4.13;;;3.17;;
4867;SDS011;2448;48.086;10.862;2023-05-07T06:12:49;3.40;;;3.10;;
4867;SDS011;2448;48.086;10.862;2023-05-07T06:15:15;4.10;;;2.90;;
4867;SDS011;2448;48.086;10.862;2023-05-07T06:17:41;2.97;;;2.77;;
4867;SDS011;2448;48.086;10.862;2023-05-07T06:20:08;3.23;;;2.67;;
4867;SDS011;2448;48.086;10.862;2023-05-07T06:22:34;3.30;;;3.00;;
4867;SDS011;2448;48.086;10.862;2023-05-07T06:24:59;3.80;;;2.77;;
4867;SDS011;2448;48.086;10.862;2023-05-07T06:27:25;2.57;;;2.43;;
4867;SDS011;2448;48.086;10.862;2023-05-07T06:29:51;6.43;;;2.70;;
4867;SDS011;2448;48.086;10.862;2023-05-07T06:32:16;3.40;;;3.10;;
4867;SDS011;2448;48.086;10.862;2023-05-07T06:34:43;3.23;;;2.93;;
4867;SDS011;2448;48.086;10.862;2023-05-07T06:37:09;2.50;;;2.40;;
4867;SDS011;2448;48.086;10.862;2023-05-07T06:39:58;5.13;;;2.70;;
4867;SDS011;2448;48.086;10.862;2023-05-07T06:42:23;2.30;;;2.20;;
4867;SDS011;2448;48.086;10.862;2023-05-07T06:44:49;3.27;;;2.53;;
4867;SDS011;2448;48.086;10.862;2023-05-07T06:47:16;4.63;;;3.03;;
4867;SDS011;2448;48.086;10.862;2023-05-07T06:49:44;8.20;;;2.90;;
4867;SDS011;2448;48.086;10.862;2023-05-07T06:52:13;2.10;;;1.97;;
4867;SDS011;2448;48.086;10.862;2023-05-07T06:54:39;2.40;;;2.30;;
4867;SDS011;2448;48.086;10.862;2023-05-07T06:57:04;2.80;;;2.60;;
4867;SDS011;2448;48.086;10.862;2023-05-07T06:59:30;2.53;;;2.33;;
4867;SDS011;2448;48.086;10.862;2023-05-07T07:01:56;6.93;;;2.60;;
4867;SDS011;2448;48.086;10.862;2023-05-07T07:04:21;2.80;;;2.60;;
4867;SDS011;2448;48.086;10.862;2023-05-07T07:06:56;2.27;;;2.17;;
4867;SDS011;2448;48.086;10.862;2023-05-07T07:09:22;2.47;;;2.37;;
4867;SDS011;2448;48.086;10.862;2023-05-07T07:11:48;2.90;;;2.70;;
4867;SDS011;2448;48.086;10.862;2023-05-07T07:14:13;8.97;;;2.80;;
4867;SDS011;2448;48.086;10.862;2023-05-07T07:16:45;3.63;;;2.50;;
4867;SDS011;2448;48.086;10.862;2023-05-07T07:19:13;2.50;;;2.30;;
4867;SDS011;2448;48.086;10.862;2023-05-07T07:21:41;2.43;;;2.33;;
4867;SDS011;2448;48.086;10.862;2023-05-07T07:24:07;8.10;;;2.80;;
4867;SDS011;2448;48.086;10.862;2023-05-07T07:26:32;3.70;;;3.00;;
4867;SDS011;2448;48.086;10.862;2023-05-07T07:28:58;2.50;;;2.30;;
4867;SDS011;2448;48.086;10.862;2023-05-07T07:31:23;3.10;;;2.90;;
4867;SDS011;2448;48.086;10.862;2023-05-07T07:33:50;2.63;;;2.53;;
4867;SDS011;2448;48.086;10.862;2023-05-07T07:36:16;2.43;;;2.30;;
4867;SDS011;2448;48.086;10.862;2023-05-07T07:38:41;2.50;;;2.40;;
4867;SDS011;2448;48.086;10.862;2023-05-07T07:41:08;2.80;;;2.60;;
4867;SDS011;2448;48.086;10.862;2023-05-07T07:43:34;3.47;;;2.80;;
4867;SDS011;2448;48.086;10.862;2023-05-07T07:46:01;2.80;;;2.10;;
4867;SDS011;2448;48.086;10.862;2023-05-07T07:48:27;2.67;;;2.47;;
4867;SDS011;2448;48.086;10.862;2023-05-07T07:50:52;2.43;;;2.20;;
4867;SDS011;2448;48.086;10.862;2023-05-07T07:53:18;2.30;;;2.20;;
4867;SDS011;2448;48.086;10.862;2023-05-07T07:55:44;2.20;;;2.10;;
4867;SDS011;2448;48.086;10.862;2023-05-07T07:58:12;2.00;;;1.90;;
4867;SDS011;2448;48.086;10.862;2023-05-07T08:00:38;1.73;;;1.63;;
4867;SDS011;2448;48.086;10.862;2023-05-07T08:03:03;2.30;;;2.20;;
4867;SDS011;2448;48.086;10.862;2023-05-07T08:05:34;2.50;;;2.00;;
4867;SDS011;2448;48.086;10.862;2023-05-07T08:08:01;2.03;;;1.93;;
4867;SDS011;2448;48.086;10.862;2023-05-07T08:10:30;4.90;;;1.87;;
4867;SDS011;2448;48.086;10.862;2023-05-07T08:13:03;3.70;;;2.07;;
4867;SDS011;2448;48.086;10.862;2023-05-07T08:15:29;2.83;;;2.43;;
4867;SDS011;2448;48.086;10.862;2023-05-07T08:17:55;3.60;;;2.30;;
4867;SDS011;2448;48.086;10.862;2023-05-07T08:20:23;17.43;;;2.40;;
4867;SDS011;2448;48.086;10.862;2023-05-07T08:22:49;2.70;;;2.50;;
4867;SDS011;2448;48.086;10.862;2023-05-07T08:25:15;5.80;;;2.17;;
4867;SDS011;2448;48.086;10.862;2023-05-07T08:27:41;2.33;;;2.23;;
4867;SDS011;2448;48.086;10.862;2023-05-07T08:30:07;2.37;;;2.27;;
4867;SDS011;2448;48.086;10.862;2023-05-07T08:32:32;2.43;;;2.33;;
4867;SDS011;2448;48.086;10.862;2023-05-07T08:34:58;2.30;;;2.10;;
4867;SDS011;2448;48.086;10.862;2023-05-07T08:37:23;2.23;;;2.10;;
4867;SDS011;2448;48.086;10.862;2023-05-07T08:39:49;2.17;;;2.07;;
4867;SDS011;2448;48.086;10.862;2023-05-07T08:42:19;2.30;;;2.10;;
4867;SDS011;2448;48.086;10.862;2023-05-07T08:44:46;2.07;;;1.97;;
4867;SDS011;2448;48.086;10.862;2023-05-07T08:47:16;3.10;;;2.07;;
4867;SDS011;2448;48.086;10.862;2023-05-07T08:49:43;2.10;;;2.00;;
4867;SDS011;2448;48.086;10.862;2023-05-07T08:52:09;2.50;;;2.40;;
4867;SDS011;2448;48.086;10.862;2023-05-07T08:54:34;2.20;;;2.10;;
4867;SDS011;2448;48.086;10.862;2023-05-07T08:57:02;1.70;;;1.70;;
4867;SDS011;2448;48.086;10.862;2023-05-07T08:59:28;1.80;;;1.70;;
4867;SDS011;2448;48.086;10.862;2023-05-07T09:01:54;2.00;;;1.90;;
4867;SDS011;2448;48.086;10.862;2023-05-07T09:04:19;2.10;;;2.00;;
4867;SDS011;2448;48.086;10.862;2023-05-07T09:06:45;2.77;;;2.30;;
4867;SDS011;2448;48.086;10.862;2023-05-07T09:09:19;2.03;;;1.93;;
4867;SDS011;2448;48.086;10.862;2023-05-07T09:11:48;2.20;;;2.00;;
4867;SDS011;2448;48.086;10.862;2023-05-07T09:14:17;3.40;;;1.73;;
4867;SDS011;2448;48.086;10.862;2023-05-07T09:16:46;2.00;;;1.90;;
4867;SDS011;2448;48.086;10.862;2023-05-07T09:19:12;2.10;;;2.00;;
4867;SDS011;2448;48.086;10.862;2023-05-07T09:21:42;1.70;;;1.60;;
4867;SDS011;2448;48.086;10.862;2023-05-07T09:24:09;8.93;;;1.80;;
4867;SDS011;2448;48.086;10.862;2023-05-07T09:26:38;2.23;;;2.13;;
4867;SDS011;2448;48.086;10.862;2023-05-07T09:29:05;2.73;;;2.23;;
4867;SDS011;2448;48.086;10.862;2023-05-07T09:31:31;1.60;;;1.50;;
4867;SDS011;2448;48.086;10.862;2023-05-07T09:33:57;1.70;;;1.60;;
4867;SDS011;2448;48.086;10.862;2023-05-07T09:36:25;2.00;;;1.80;;
4867;SDS011;2448;48.086;10.862;2023-05-07T09:38:52;2.47;;;2.10;;
4867;SDS011;2448;48.086;10.862;2023-05-07T09:41:18;2.17;;;1.97;;
4867;SDS011;2448;48.086;10.862;2023-05-07T09:43:59;2.10;;;2.00;;
4867;SDS011;2448;48.086;10.862;2023-05-07T09:46:32;2.00;;;1.90;;
4867;SDS011;2448;48.086;10.862;2023-05-07T09:49:03;2.80;;;2.60;;
4867;SDS011;2448;48.086;10.862;2023-05-07T09:53:59;2.40;;;2.30;;
4867;SDS011;2448;48.086;10.862;2023-05-07T09:56:29;2.83;;;2.63;;
4867;SDS011;2448;48.086;10.862;2023-05-07T09:58:55;6.30;;;2.50;;
4867;SDS011;2448;48.086;10.862;2023-05-07T10:01:21;3.67;;;2.07;;
4867;SDS011;2448;48.086;10.862;2023-05-07T10:03:49;2.57;;;2.47;;
4867;SDS011;2448;48.086;10.862;2023-05-07T10:06:15;2.83;;;2.63;;
4867;SDS011;2448;48.086;10.862;2023-05-07T10:08:42;2.67;;;2.47;;
4867;SDS011;2448;48.086;10.862;2023-05-07T10:11:08;7.90;;;3.40;;
4867;SDS011;2448;48.086;10.862;2023-05-07T10:13:34;3.13;;;2.83;;
4867;SDS011;2448;48.086;10.862;2023-05-07T10:16:04;3.03;;;2.83;;
4867;SDS011;2448;48.086;10.862;2023-05-07T10:18:37;3.80;;;3.10;;
4867;SDS011;2448;48.086;10.862;2023-05-07T10:21:19;3.43;;;3.20;;
4867;SDS011;2448;48.086;10.862;2023-05-07T10:23:50;3.13;;;2.93;;
4867;SDS011;2448;48.086;10.862;2023-05-07T10:26:20;4.77;;;3.23;;
4867;SDS011;2448;48.086;10.862;2023-05-07T10:28:48;3.43;;;3.13;;
4867;SDS011;2448;48.086;10.862;2023-05-07T10:31:18;3.77;;;3.40;;
4867;SDS011;2448;48.086;10.862;2023-05-07T10:33:48;3.70;;;3.40;;
4867;SDS011;2448;48.086;10.862;2023-05-07T10:36:17;4.13;;;3.63;;
4867;SDS011;2448;48.086;10.862;2023-05-07T10:38:43;3.10;;;2.90;;
4867;SDS011;2448;48.086;10.862;2023-05-07T10:41:10;4.30;;;3.40;;
4867;SDS011;2448;48.086;10.862;2023-05-07T10:43:39;3.33;;;3.00;;
4867;SDS011;2448;48.086;10.862;2023-05-07T10:46:10;5.90;;;3.40;;
4867;SDS011;2448;48.086;10.862;2023-05-07T10:49:06;3.90;;;3.13;;
4867;SDS011;2448;48.086;10.862;2023-05-07T10:51:22;3.10;;;2.90;;
4867;SDS011;2448;48.086;10.862;2023-05-07T10:56:38;3.43;;;3.17;;
4867;SDS011;2448;48.086;10.862;2023-05-07T11:04:50;2.77;;;2.50;;
4867;SDS011;2448;48.086;10.862;2023-05-07T11:07:33;2.97;;;2.77;;
4867;SDS011;2448;48.086;10.862;2023-05-07T11:10:19;2.63;;;2.43;;
4867;SDS011;2448;48.086;10.862;2023-05-07T11:12:57;6.00;;;2.70;;
4867;SDS011;2448;48.086;10.862;2023-05-07T11:15:47;2.60;;;2.40;;
4867;SDS011;2448;48.086;10.862;2023-05-07T11:18:45;2.90;;;2.40;;
4867;SDS011;2448;48.086;10.862;2023-05-07T11:21:11;2.23;;;1.90;;
4867;SDS011;2448;48.086;10.862;2023-05-07T11:23:54;2.03;;;1.93;;
4867;SDS011;2448;48.086;10.862;2023-05-07T11:26:27;2.37;;;2.17;;
4867;SDS011;2448;48.086;10.862;2023-05-07T11:28:53;2.00;;;1.90;;
4867;SDS011;2448;48.086;10.862;2023-05-07T11:31:24;2.60;;;2.20;;
4867;SDS011;2448;48.086;10.862;2023-05-07T11:33:51;2.30;;;2.10;;
4867;SDS011;2448;48.086;10.862;2023-05-07T11:36:19;2.07;;;1.93;;
4867;SDS011;2448;48.086;10.862;2023-05-07T11:38:47;1.70;;;1.70;;
4867;SDS011;2448;48.086;10.862;2023-05-07T11:41:13;1.90;;;1.90;;
4867;SDS011;2448;48.086;10.862;2023-05-07T11:43:40;1.77;;;1.63;;
4867;SDS011;2448;48.086;10.862;2023-05-07T11:46:18;1.50;;;1.40;;
4867;SDS011;2448;48.086;10.862;2023-05-07T11:48:43;2.33;;;2.07;;
4867;SDS011;2448;48.086;10.862;2023-05-07T11:51:08;2.13;;;1.67;;
4867;SDS011;2448;48.086;10.862;2023-05-07T11:53:40;2.13;;;1.97;;
4867;SDS011;2448;48.086;10.862;2023-05-07T11:56:06;7.80;;;2.17;;
4867;SDS011;2448;48.086;10.862;2023-05-07T11:58:32;1.53;;;1.53;;
4867;SDS011;2448;48.086;10.862;2023-05-07T12:00:57;4.43;;;2.20;;
4867;SDS011;2448;48.086;10.862;2023-05-07T12:03:22;2.30;;;2.20;;
4867;SDS011;2448;48.086;10.862;2023-05-07T12:05:48;1.90;;;1.80;;
4867;SDS011;2448;48.086;10.862;2023-05-07T12:08:22;2.57;;;2.37;;
4867;SDS011;2448;48.086;10.862;2023-05-07T12:10:48;2.00;;;1.90;;
4867;SDS011;2448;48.086;10.862;2023-05-07T12:15:45;1.77;;;1.67;;
4867;SDS011;2448;48.086;10.862;2023-05-07T12:18:11;2.00;;;1.90;;
4867;SDS011;2448;48.086;10.862;2023-05-07T12:20:36;2.10;;;1.50;;
4867;SDS011;2448;48.086;10.862;2023-05-07T12:23:02;2.63;;;1.83;;
4867;SDS011;2448;48.086;10.862;2023-05-07T12:25:46;2.10;;;2.03;;
4867;SDS011;2448;48.086;10.862;2023-05-07T12:28:15;1.60;;;1.60;;
4867;SDS011;2448;48.086;10.862;2023-05-07T12:30:40;2.07;;;1.90;;
4867;SDS011;2448;48.086;10.862;2023-05-07T12:33:07;2.40;;;2.30;;
4867;SDS011;2448;48.086;10.862;2023-05-07T12:35:36;6.33;;;2.40;;
4867;SDS011;2448;48.086;10.862;2023-05-07T12:38:01;2.47;;;2.17;;
4867;SDS011;2448;48.086;10.862;2023-05-07T12:41:02;2.00;;;1.90;;
4867;SDS011;2448;48.086;10.862;2023-05-07T12:43:23;2.00;;;1.90;;
4867;SDS011;2448;48.086;10.862;2023-05-07T12:45:49;2.30;;;2.20;;
4867;SDS011;2448;48.086;10.862;2023-05-07T12:48:15;2.03;;;1.90;;
4867;SDS011;2448;48.086;10.862;2023-05-07T12:50:41;4.00;;;1.63;;
4867;SDS011;2448;48.086;10.862;2023-05-07T12:53:07;2.13;;;1.93;;
4867;SDS011;2448;48.086;10.862;2023-05-07T12:55:55;2.03;;;1.93;;
4867;SDS011;2448;48.086;10.862;2023-05-07T12:58:23;4.10;;;2.43;;
4867;SDS011;2448;48.086;10.862;2023-05-07T13:00:48;2.43;;;2.23;;
4867;SDS011;2448;48.086;10.862;2023-05-07T13:03:21;5.53;;;2.20;;
4867;SDS011;2448;48.086;10.862;2023-05-07T13:05:47;2.43;;;2.23;;
4867;SDS011;2448;48.086;10.862;2023-05-07T13:08:22;7.27;;;2.57;;
4867;SDS011;2448;48.086;10.862;2023-05-07T13:10:48;2.00;;;1.80;;
4867;SDS011;2448;48.086;10.862;2023-05-07T13:13:13;2.13;;;2.03;;
4867;SDS011;2448;48.086;10.862;2023-05-07T13:15:38;1.83;;;1.73;;
4867;SDS011;2448;48.086;10.862;2023-05-07T13:18:04;2.77;;;2.17;;
4867;SDS011;2448;48.086;10.862;2023-05-07T13:20:29;2.67;;;1.90;;
4867;SDS011;2448;48.086;10.862;2023-05-07T13:22:55;4.43;;;2.13;;
4867;SDS011;2448;48.086;10.862;2023-05-07T13:25:20;2.20;;;2.10;;
4867;SDS011;2448;48.086;10.862;2023-05-07T13:27:45;2.77;;;2.20;;
4867;SDS011;2448;48.086;10.862;2023-05-07T13:30:11;8.10;;;2.30;;
4867;SDS011;2448;48.086;10.862;2023-05-07T13:32:36;2.20;;;2.10;;
4867;SDS011;2448;48.086;10.862;2023-05-07T13:35:02;2.10;;;2.00;;
4867;SDS011;2448;48.086;10.862;2023-05-07T13:37:27;2.10;;;2.00;;
4867;SDS011;2448;48.086;10.862;2023-05-07T13:39:53;2.30;;;1.80;;
4867;SDS011;2448;48.086;10.862;2023-05-07T13:42:18;2.10;;;2.00;;
4867;SDS011;2448;48.086;10.862;2023-05-07T13:44:44;2.20;;;2.10;;
4867;SDS011;2448;48.086;10.862;2023-05-07T13:47:10;2.10;;;2.00;;
4867;SDS011;2448;48.086;10.862;2023-05-07T13:49:36;3.10;;;2.30;;
4867;SDS011;2448;48.086;10.862;2023-05-07T13:52:01;1.93;;;1.83;;
4867;SDS011;2448;48.086;10.862;2023-05-07T13:54:27;4.30;;;1.97;;
4867;SDS011;2448;48.086;10.862;2023-05-07T13:56:52;2.20;;;2.10;;
4867;SDS011;2448;48.086;10.862;2023-05-07T13:59:18;2.40;;;1.83;;
4867;SDS011;2448;48.086;10.862;2023-05-07T14:01:43;2.13;;;2.03;;
4867;SDS011;2448;48.086;10.862;2023-05-07T14:04:09;2.20;;;2.10;;
4867;SDS011;2448;48.086;10.862;2023-05-07T14:06:34;3.37;;;2.20;;
4867;SDS011;2448;48.086;10.862;2023-05-07T14:09:00;2.33;;;2.23;;
4867;SDS011;2448;48.086;10.862;2023-05-07T14:11:25;3.43;;;2.07;;
4867;SDS011;2448;48.086;10.862;2023-05-07T14:13:51;1.70;;;1.70;;
4867;SDS011;2448;48.086;10.862;2023-05-07T14:16:16;1.90;;;1.80;;
4867;SDS011;2448;48.086;10.862;2023-05-07T14:18:41;2.10;;;2.00;;
4867;SDS011;2448;48.086;10.862;2023-05-07T14:21:07;3.93;;;2.10;;
4867;SDS011;2448;48.086;10.862;2023-05-07T14:23:34;2.20;;;2.10;;
4867;SDS011;2448;48.086;10.862;2023-05-07T14:26:00;2.43;;;2.27;;
4867;SDS011;2448;48.086;10.862;2023-05-07T14:28:25;2.60;;;2.40;;
4867;SDS011;2448;48.086;10.862;2023-05-07T14:30:50;3.13;;;1.80;;
4867;SDS011;2448;48.086;10.862;2023-05-07T14:33:16;2.10;;;2.00;;
4867;SDS011;2448;48.086;10.862;2023-05-07T14:35:42;2.13;;;2.03;;
4867;SDS011;2448;48.086;10.862;2023-05-07T14:38:12;4.97;;;2.03;;
4867;SDS011;2448;48.086;10.862;2023-05-07T14:40:38;4.83;;;2.10;;
4867;SDS011;2448;48.086;10.862;2023-05-07T14:43:03;12.70;;;2.13;;
4867;SDS011;2448;48.086;10.862;2023-05-07T14:45:28;1.70;;;1.63;;
4867;SDS011;2448;48.086;10.862;2023-05-07T14:47:54;4.23;;;2.40;;
4867;SDS011;2448;48.086;10.862;2023-05-07T14:50:20;2.40;;;2.03;;
4867;SDS011;2448;48.086;10.862;2023-05-07T14:52:46;5.33;;;2.30;;
4867;SDS011;2448;48.086;10.862;2023-05-07T14:55:11;2.83;;;2.30;;
4867;SDS011;2448;48.086;10.862;2023-05-07T14:57:37;2.30;;;2.20;;
4867;SDS011;2448;48.086;10.862;2023-05-07T15:00:03;2.47;;;1.93;;
4867;SDS011;2448;48.086;10.862;2023-05-07T15:02:29;3.00;;;2.20;;
4867;SDS011;2448;48.086;10.862;2023-05-07T15:04:55;2.03;;;1.93;;
4867;SDS011;2448;48.086;10.862;2023-05-07T15:07:20;2.47;;;2.27;;
4867;SDS011;2448;48.086;10.862;2023-05-07T15:09:46;18.10;;;2.77;;
4867;SDS011;2448;48.086;10.862;2023-05-07T15:12:12;5.53;;;2.20;;
4867;SDS011;2448;48.086;10.862;2023-05-07T15:14:38;5.03;;;2.30;;